createdAt,value
2023-04-20T00:00:02.129Z,78.90
2023-04-20T00:02:29.342Z,78.90
2023-04-20T00:04:56.465Z,78.90
2023-04-20T00:07:24.843Z,78.90
2023-04-20T00:09:51.644Z,79.10
2023-04-20T00:12:18.515Z,79.20
2023-04-20T00:14:45.284Z,79.30
2023-04-20T00:17:25.762Z,80.30
2023-04-20T00:19:52.730Z,80.10
2023-04-20T00:22:19.777Z,80.00
2023-04-20T00:24:46.603Z,80.20
2023-04-20T00:27:13.460Z,80.40
2023-04-20T00:29:40.203Z,80.60
2023-04-20T00:32:07.027Z,80.80
2023-04-20T00:34:35.882Z,81.10
2023-04-20T00:37:02.716Z,81.20
2023-04-20T00:39:29.568Z,81.30
2023-04-20T00:42:05.096Z,81.50
2023-04-20T00:44:32.252Z,81.70
2023-04-20T00:46:59.053Z,81.70
2023-04-20T00:49:29.820Z,81.60
2023-04-20T00:51:58.427Z,81.50
2023-04-20T00:54:26.357Z,81.40
2023-04-20T00:56:53.985Z,81.40
2023-04-20T00:59:21.368Z,81.40
2023-04-20T01:01:48.397Z,81.40
2023-04-20T01:04:15.618Z,81.30
2023-04-20T01:06:42.587Z,81.30
2023-04-20T01:09:12.300Z,82.00
2023-04-20T01:11:39.629Z,81.20
2023-04-20T01:14:07.376Z,81.20
2023-04-20T01:16:37.333Z,81.10
2023-04-20T01:19:04.395Z,81.00
2023-04-20T01:21:32.175Z,81.10
2023-04-20T01:24:01.129Z,81.10
2023-04-20T01:26:27.997Z,81.10
2023-04-20T01:28:54.912Z,81.80
2023-04-20T01:31:21.953Z,81.10
2023-04-20T01:33:49.231Z,81.10
2023-04-20T01:36:16.316Z,81.20
2023-04-20T01:38:43.156Z,81.40
2023-04-20T01:41:11.363Z,81.40
2023-04-20T01:43:39.458Z,81.60
2023-04-20T01:46:07.079Z,81.50
2023-04-20T01:48:34.398Z,81.60
2023-04-20T01:51:01.328Z,81.60
2023-04-20T01:53:28.335Z,81.60
2023-04-20T01:55:55.158Z,81.60
2023-04-20T01:58:23.403Z,81.70
2023-04-20T02:00:50.371Z,81.80
2023-04-20T02:03:17.422Z,81.90
2023-04-20T02:05:44.415Z,81.90
2023-04-20T02:08:11.336Z,81.80
2023-04-20T02:10:38.218Z,81.80
2023-04-20T02:13:05.169Z,81.80
2023-04-20T02:15:33.420Z,81.90
2023-04-20T02:18:00.494Z,82.20
2023-04-20T02:20:27.512Z,82.50
2023-04-20T02:22:54.400Z,83.00
2023-04-20T02:25:21.662Z,83.50
2023-04-20T02:27:48.622Z,83.90
2023-04-20T02:30:15.448Z,84.30
2023-04-20T02:32:44.376Z,84.70
2023-04-20T02:35:11.425Z,85.20
2023-04-20T02:37:38.261Z,85.50
2023-04-20T02:40:07.047Z,85.70
2023-04-20T02:42:33.857Z,86.20
2023-04-20T02:45:01.111Z,86.30
2023-04-20T02:47:27.884Z,86.80
2023-04-20T02:49:56.561Z,87.10
2023-04-20T02:52:23.350Z,87.50
2023-04-20T02:54:50.163Z,87.80
2023-04-20T02:57:17.058Z,88.20
2023-04-20T02:59:43.923Z,88.70
2023-04-20T03:02:10.933Z,89.00
2023-04-20T03:04:38.035Z,89.20
2023-04-20T03:07:06.544Z,89.40
2023-04-20T03:09:33.307Z,89.90
2023-04-20T03:12:02.304Z,90.00
2023-04-20T03:14:29.168Z,90.20
2023-04-20T03:16:55.929Z,90.30
2023-04-20T03:19:23.563Z,90.40
2023-04-20T03:21:50.803Z,90.60
2023-04-20T03:24:19.232Z,90.70
2023-04-20T03:26:46.064Z,90.90
2023-04-20T03:29:12.949Z,90.90
2023-04-20T03:31:39.753Z,91.00
2023-04-20T03:34:06.707Z,91.20
2023-04-20T03:36:33.656Z,91.30
2023-04-20T03:39:00.536Z,91.40
2023-04-20T03:41:28.711Z,91.50
2023-04-20T03:43:55.877Z,91.70
2023-04-20T03:46:23.524Z,91.90
2023-04-20T03:48:50.909Z,92.10
2023-04-20T03:51:17.703Z,92.20
2023-04-20T03:53:44.634Z,92.40
2023-04-20T03:56:11.519Z,92.60
2023-04-20T03:58:39.643Z,92.80
2023-04-20T04:01:10.554Z,92.90
2023-04-20T04:03:37.497Z,93.00
2023-04-20T04:06:04.985Z,93.20
2023-04-20T04:08:32.225Z,93.30
2023-04-20T04:11:00.221Z,93.50
2023-04-20T04:13:27.059Z,93.70
2023-04-20T04:15:55.259Z,93.80
2023-04-20T04:18:22.252Z,94.00
2023-04-20T04:20:49.192Z,94.10
2023-04-20T04:23:16.344Z,94.30
2023-04-20T04:25:43.377Z,94.40
2023-04-20T04:28:10.549Z,94.50
2023-04-20T04:30:37.304Z,94.70
2023-04-20T04:33:05.605Z,94.80
2023-04-20T04:35:34.305Z,95.00
2023-04-20T04:38:01.243Z,95.00
2023-04-20T04:40:28.222Z,95.20
2023-04-20T04:42:55.560Z,95.30
2023-04-20T04:45:25.279Z,95.40
2023-04-20T04:47:53.980Z,95.50
2023-04-20T04:50:22.488Z,95.60
2023-04-20T04:52:49.323Z,95.70
2023-04-20T04:55:16.741Z,95.80
2023-04-20T04:57:43.689Z,95.90
2023-04-20T05:00:12.469Z,96.00
2023-04-20T05:02:39.867Z,96.10
2023-04-20T05:05:11.003Z,96.10
2023-04-20T05:07:40.201Z,96.30
2023-04-20T05:10:08.482Z,96.30
2023-04-20T05:12:35.366Z,96.40
2023-04-20T05:15:02.250Z,96.40
2023-04-20T05:17:29.213Z,96.50
2023-04-20T05:19:56.063Z,96.60
2023-04-20T05:22:22.865Z,96.70
2023-04-20T05:24:51.104Z,96.70
2023-04-20T05:27:17.917Z,96.80
2023-04-20T05:29:44.751Z,96.90
2023-04-20T05:32:11.635Z,97.00
2023-04-20T05:34:38.551Z,97.10
2023-04-20T05:37:06.181Z,97.10
2023-04-20T05:39:33.191Z,97.20
2023-04-20T05:42:01.725Z,97.30
2023-04-20T05:44:28.617Z,97.30
2023-04-20T05:46:55.838Z,97.40
2023-04-20T05:49:22.734Z,97.50
2023-04-20T05:51:49.619Z,97.50
2023-04-20T05:54:16.515Z,97.60
2023-04-20T05:56:43.313Z,97.60
2023-04-20T05:59:11.568Z,97.70
2023-04-20T06:01:38.441Z,97.70
2023-04-20T06:04:05.604Z,97.80
2023-04-20T06:06:32.752Z,97.80
2023-04-20T06:08:59.608Z,97.80
2023-04-20T06:11:26.544Z,97.90
2023-04-20T06:13:53.343Z,97.90
2023-04-20T06:16:21.468Z,98.00
2023-04-20T06:18:48.407Z,98.00
2023-04-20T06:21:16.253Z,98.10
2023-04-20T06:23:44.456Z,98.10
2023-04-20T06:26:11.622Z,98.20
2023-04-20T06:28:38.743Z,98.60
2023-04-20T06:31:05.944Z,98.60
2023-04-20T06:33:34.110Z,98.60
2023-04-20T06:36:00.959Z,98.50
2023-04-20T06:38:27.859Z,98.50
2023-04-20T06:40:54.694Z,98.50
2023-04-20T06:43:21.455Z,98.50
2023-04-20T06:45:48.312Z,98.50
2023-04-20T06:48:30.657Z,98.60
2023-04-20T06:51:00.313Z,98.60
2023-04-20T06:53:27.303Z,98.60
2023-04-20T06:55:54.936Z,98.70
2023-04-20T06:58:21.843Z,98.80
2023-04-20T07:00:48.671Z,98.90
2023-04-20T07:03:16.131Z,99.00
2023-04-20T07:05:43.182Z,99.00
2023-04-20T07:08:11.351Z,99.00
2023-04-20T07:10:38.216Z,99.10
2023-04-20T07:13:05.077Z,99.20
2023-04-20T07:15:31.876Z,99.20
2023-04-20T07:17:59.081Z,99.30
2023-04-20T07:20:25.993Z,99.30
2023-04-20T07:22:52.842Z,99.30
2023-04-20T07:25:21.222Z,99.30
2023-04-20T07:27:48.109Z,99.40
2023-04-20T07:30:15.410Z,99.50
2023-04-20T07:32:42.405Z,99.60
2023-04-20T07:35:10.289Z,99.70
2023-04-20T07:37:37.183Z,99.70
2023-04-20T07:40:06.708Z,99.70
2023-04-20T07:42:36.849Z,99.80
2023-04-20T07:45:03.936Z,99.90
2023-04-20T07:47:30.873Z,99.70
2023-04-20T07:49:57.832Z,99.80
2023-04-20T07:52:24.931Z,99.80
2023-04-20T07:54:53.673Z,99.90
2023-04-20T07:57:20.964Z,99.90
2023-04-20T07:59:49.102Z,99.90
2023-04-20T08:02:16.517Z,99.90
2023-04-20T08:04:44.598Z,99.90
2023-04-20T08:07:11.639Z,99.90
2023-04-20T08:09:38.447Z,99.90
2023-04-20T08:12:05.777Z,99.90
2023-04-20T08:14:33.632Z,99.90
2023-04-20T08:17:01.881Z,99.90
2023-04-20T08:19:28.733Z,99.90
2023-04-20T08:21:56.148Z,99.90
2023-04-20T08:24:23.001Z,99.90
2023-04-20T08:26:49.965Z,99.90
2023-04-20T08:29:17.280Z,99.90
2023-04-20T08:31:44.109Z,99.70
2023-04-20T08:34:13.306Z,99.50
2023-04-20T08:36:40.290Z,99.30
2023-04-20T08:39:09.195Z,99.20
2023-04-20T08:41:36.469Z,99.10
2023-04-20T08:44:03.697Z,99.10
2023-04-20T08:46:30.772Z,99.10
2023-04-20T08:49:00.366Z,99.00
2023-04-20T08:51:29.124Z,98.90
2023-04-20T08:53:56.719Z,98.80
2023-04-20T08:56:34.765Z,98.70
2023-04-20T08:59:03.624Z,98.60
2023-04-20T09:01:35.518Z,98.60
2023-04-20T09:04:16.461Z,98.50
2023-04-20T09:06:45.845Z,98.40
2023-04-20T09:09:12.903Z,98.40
2023-04-20T09:11:40.512Z,98.40
2023-04-20T09:14:12.487Z,98.30
2023-04-20T09:16:50.126Z,98.20
2023-04-20T09:19:22.588Z,98.00
2023-04-20T09:21:51.674Z,97.90
2023-04-20T09:24:20.111Z,97.70
2023-04-20T09:26:47.320Z,97.50
2023-04-20T09:29:18.600Z,97.20
2023-04-20T09:31:45.646Z,97.00
2023-04-20T09:34:12.874Z,96.70
2023-04-20T09:36:42.613Z,96.50
2023-04-20T09:39:12.663Z,96.40
2023-04-20T09:41:41.889Z,96.40
2023-04-20T09:44:10.343Z,96.30
2023-04-20T09:46:38.541Z,96.10
2023-04-20T09:49:07.094Z,95.90
2023-04-20T09:51:35.597Z,95.80
2023-04-20T09:54:04.045Z,95.60
2023-04-20T09:56:33.508Z,95.30
2023-04-20T09:59:01.628Z,95.00
2023-04-20T10:01:31.534Z,94.70
2023-04-20T10:04:00.048Z,94.40
2023-04-20T10:06:29.235Z,94.10
2023-04-20T10:08:56.489Z,93.80
2023-04-20T10:11:31.502Z,93.50
2023-04-20T10:14:17.601Z,93.30
2023-04-20T10:16:45.878Z,92.70
2023-04-20T10:19:13.197Z,92.20
2023-04-20T10:21:47.489Z,91.90
2023-04-20T10:24:16.179Z,91.70
2023-04-20T10:26:45.603Z,91.60
2023-04-20T10:29:25.247Z,91.50
2023-04-20T10:31:53.283Z,91.20
2023-04-20T10:34:30.424Z,91.20
2023-04-20T10:37:07.544Z,91.00
2023-04-20T10:39:34.430Z,90.90
2023-04-20T10:42:04.246Z,91.00
2023-04-20T10:44:34.115Z,91.20
2023-04-20T10:47:01.120Z,91.40
2023-04-20T10:49:29.419Z,91.40
2023-04-20T10:51:56.863Z,91.20
2023-04-20T10:54:23.642Z,91.10
2023-04-20T10:56:51.954Z,91.10
2023-04-20T10:59:20.793Z,91.10
2023-04-20T11:01:50.648Z,91.10
2023-04-20T11:04:19.240Z,91.20
2023-04-20T11:06:48.526Z,91.20
2023-04-20T11:09:20.445Z,91.30
2023-04-20T11:11:58.007Z,91.30
2023-04-20T11:14:24.842Z,91.40
2023-04-20T11:16:53.636Z,91.30
2023-04-20T11:19:25.192Z,91.10
2023-04-20T11:21:52.291Z,91.00
2023-04-20T11:24:22.206Z,90.90
2023-04-20T11:26:54.278Z,90.50
2023-04-20T11:29:28.956Z,90.30
2023-04-20T11:31:57.715Z,90.10
2023-04-20T11:34:24.681Z,90.20
2023-04-20T11:36:51.746Z,90.50
2023-04-20T11:39:25.338Z,90.70
2023-04-20T11:41:52.869Z,90.90
2023-04-20T11:44:20.938Z,91.10
2023-04-20T11:46:49.290Z,91.20
2023-04-20T11:49:18.116Z,91.30
2023-04-20T11:51:46.449Z,91.40
2023-04-20T11:54:13.371Z,91.50
2023-04-20T11:56:42.491Z,91.60
2023-04-20T11:59:09.594Z,91.80
2023-04-20T12:01:37.527Z,91.80
2023-04-20T12:04:04.881Z,91.80
2023-04-20T12:06:33.620Z,91.70
2023-04-20T12:09:00.908Z,91.70
2023-04-20T12:11:27.951Z,91.80
2023-04-20T12:13:54.854Z,91.90
2023-04-20T12:16:21.794Z,92.00
2023-04-20T12:18:48.793Z,92.10
2023-04-20T12:21:15.704Z,92.20
2023-04-20T12:23:44.345Z,92.30
2023-04-20T12:26:11.873Z,92.40
2023-04-20T12:28:39.500Z,92.60
2023-04-20T12:31:07.734Z,92.50
2023-04-20T12:33:34.708Z,92.30
2023-04-20T12:36:01.496Z,92.20
2023-04-20T12:38:28.454Z,92.20
2023-04-20T12:40:56.585Z,92.10
2023-04-20T12:43:23.430Z,92.00
2023-04-20T12:45:50.322Z,91.90
2023-04-20T12:48:17.264Z,91.80
2023-04-20T12:50:44.263Z,91.50
2023-04-20T12:53:11.783Z,91.30
2023-04-20T12:55:38.662Z,91.20
2023-04-20T12:58:06.852Z,91.10
2023-04-20T13:00:33.817Z,91.00
2023-04-20T13:03:00.730Z,90.90
2023-04-20T13:05:28.082Z,90.60
2023-04-20T13:07:54.981Z,90.60
2023-04-20T13:10:21.904Z,90.50
2023-04-20T13:12:48.803Z,90.20
2023-04-20T13:15:31.825Z,90.00
2023-04-20T13:18:05.023Z,89.70
2023-04-20T13:20:32.066Z,89.40
2023-04-20T13:23:01.291Z,88.70
2023-04-20T13:25:30.094Z,88.30
2023-04-20T13:27:57.636Z,89.50
2023-04-20T13:30:26.306Z,89.40
2023-04-20T13:32:53.126Z,90.00
2023-04-20T13:35:20.233Z,90.30
2023-04-20T13:37:47.111Z,90.40
2023-04-20T13:40:13.896Z,90.50
2023-04-20T13:42:40.833Z,90.90
2023-04-20T13:45:09.005Z,90.60
2023-04-20T13:47:37.809Z,90.60
2023-04-20T13:50:05.356Z,90.60
2023-04-20T13:52:32.161Z,90.50
2023-04-20T13:54:59.075Z,90.60
2023-04-20T13:57:25.925Z,90.70
2023-04-20T13:59:53.072Z,90.90
2023-04-20T14:02:20.117Z,90.90
2023-04-20T14:04:48.676Z,90.70
2023-04-20T14:07:15.650Z,90.60
2023-04-20T14:09:44.232Z,90.50
2023-04-20T14:12:11.802Z,91.00
2023-04-20T14:14:38.865Z,90.90
2023-04-20T14:17:05.977Z,90.80
2023-04-20T14:19:32.979Z,90.90
2023-04-20T14:22:01.249Z,90.90
2023-04-20T14:24:28.106Z,91.10
2023-04-20T14:26:55.045Z,91.40
2023-04-20T14:29:21.934Z,91.70
2023-04-20T14:31:48.843Z,92.00
2023-04-20T14:34:16.009Z,92.30
2023-04-20T14:36:43.035Z,92.40
2023-04-20T14:39:11.348Z,92.60
2023-04-20T14:41:38.168Z,92.60
2023-04-20T14:44:05.134Z,92.70
2023-04-20T14:46:32.021Z,92.70
2023-04-20T14:48:58.873Z,92.70
2023-04-20T14:51:26.998Z,92.70
2023-04-20T14:53:53.840Z,92.60
2023-04-20T14:56:22.100Z,92.60
2023-04-20T14:58:48.914Z,92.50
2023-04-20T15:01:15.828Z,92.50
2023-04-20T15:03:42.978Z,92.40
2023-04-20T15:06:11.322Z,92.30
2023-04-20T15:08:38.154Z,92.20
2023-04-20T15:11:05.663Z,92.10
2023-04-20T15:13:33.853Z,92.10
2023-04-20T15:16:00.661Z,92.20
2023-04-20T15:18:27.554Z,92.20
2023-04-20T15:20:54.400Z,92.40
2023-04-20T15:23:21.268Z,92.50
2023-04-20T15:25:48.320Z,92.70
2023-04-20T15:28:15.256Z,92.90
2023-04-20T15:30:44.202Z,93.00
2023-04-20T15:33:11.436Z,93.20
2023-04-20T15:35:38.517Z,93.30
2023-04-20T15:38:05.577Z,93.40
2023-04-20T15:40:32.525Z,93.60
2023-04-20T15:42:59.381Z,93.60
2023-04-20T15:45:26.288Z,93.80
2023-04-20T15:47:55.867Z,93.90
2023-04-20T15:50:23.103Z,94.10
2023-04-20T15:52:52.003Z,94.50
2023-04-20T15:55:18.852Z,94.30
2023-04-20T15:57:45.676Z,94.30
2023-04-20T16:00:13.496Z,94.40
2023-04-20T16:02:40.753Z,94.50
2023-04-20T16:05:09.750Z,94.50
2023-04-20T16:07:36.592Z,94.60
2023-04-20T16:10:06.522Z,94.60
2023-04-20T16:12:33.424Z,94.70
2023-04-20T16:15:00.730Z,94.80
2023-04-20T16:17:27.670Z,94.80
2023-04-20T16:19:54.477Z,94.90
2023-04-20T16:22:22.681Z,94.90
2023-04-20T16:24:49.507Z,95.00
2023-04-20T16:27:16.700Z,95.00
2023-04-20T16:29:43.878Z,95.10
2023-04-20T16:32:11.756Z,95.20
2023-04-20T16:34:38.603Z,95.20
2023-04-20T16:37:05.523Z,95.20
2023-04-20T16:39:33.798Z,95.30
2023-04-20T16:42:00.614Z,95.40
2023-04-20T16:44:27.443Z,95.40
2023-04-20T16:46:54.596Z,95.60
2023-04-20T16:49:21.505Z,95.80
2023-04-20T16:51:48.297Z,95.90
2023-04-20T16:54:15.167Z,96.10
2023-04-20T16:56:43.391Z,96.20
2023-04-20T16:59:10.322Z,96.30
2023-04-20T17:01:37.141Z,96.50
2023-04-20T17:04:04.047Z,96.50
2023-04-20T17:06:31.460Z,96.60
2023-04-20T17:09:06.947Z,96.70
2023-04-20T17:11:38.760Z,96.80
2023-04-20T17:14:07.257Z,96.90
2023-04-20T17:16:34.420Z,97.10
2023-04-20T17:19:01.819Z,97.20
2023-04-20T17:21:29.043Z,97.30
2023-04-20T17:23:56.255Z,97.40
2023-04-20T17:26:23.174Z,97.60
2023-04-20T17:28:50.100Z,97.80
2023-04-20T17:31:18.401Z,97.90
2023-04-20T17:33:45.234Z,98.00
2023-04-20T17:36:12.106Z,98.10
2023-04-20T17:38:38.943Z,98.30
2023-04-20T17:41:06.014Z,98.40
2023-04-20T17:43:32.860Z,98.40
2023-04-20T17:46:00.606Z,98.60
2023-04-20T17:48:28.929Z,98.60
2023-04-20T17:50:58.139Z,98.70
2023-04-20T17:53:25.751Z,98.70
2023-04-20T17:55:52.596Z,98.90
2023-04-20T17:58:19.448Z,99.00
2023-04-20T18:00:47.644Z,99.10
2023-04-20T18:03:14.848Z,99.20
2023-04-20T18:05:43.320Z,99.30
2023-04-20T18:08:10.435Z,99.40
2023-04-20T18:10:37.443Z,99.50
2023-04-20T18:13:04.537Z,99.60
2023-04-20T18:15:31.570Z,99.70
2023-04-20T18:17:58.672Z,99.70
2023-04-20T18:20:25.652Z,99.80
2023-04-20T18:22:53.825Z,99.90
2023-04-20T18:25:20.555Z,99.90
2023-04-20T18:27:47.561Z,99.90
2023-04-20T18:30:15.133Z,99.90
2023-04-20T18:32:42.433Z,99.90
2023-04-20T18:35:10.929Z,99.90
2023-04-20T18:37:38.251Z,99.90
2023-04-20T18:40:08.193Z,99.90
2023-04-20T18:42:35.049Z,99.90
2023-04-20T18:45:01.899Z,99.90
2023-04-20T18:47:29.430Z,99.90
2023-04-20T18:49:56.320Z,99.90
2023-04-20T18:52:23.496Z,99.90
2023-04-20T18:54:51.671Z,99.90
2023-04-20T18:57:23.921Z,99.90
2023-04-20T18:59:50.763Z,99.90
2023-04-20T19:02:17.724Z,99.90
2023-04-20T19:04:44.620Z,99.90
2023-04-20T19:07:11.505Z,99.90
2023-04-20T19:09:38.410Z,99.90
2023-04-20T19:12:05.772Z,99.90
2023-04-20T19:14:33.974Z,99.90
2023-04-20T19:17:02.091Z,99.90
2023-04-20T19:19:29.169Z,99.90
2023-04-20T19:21:57.654Z,99.90
2023-04-20T19:24:24.550Z,99.90
2023-04-20T19:26:51.541Z,99.90
2023-04-20T19:29:18.387Z,99.90
2023-04-20T19:31:46.668Z,99.90
2023-04-20T19:34:14.538Z,99.90
2023-04-20T19:36:41.874Z,99.90
2023-04-20T19:39:08.832Z,99.90
2023-04-20T19:41:35.885Z,99.90
2023-04-20T19:44:06.124Z,99.90
2023-04-20T19:46:33.445Z,99.90
2023-04-20T19:49:03.025Z,99.90
2023-04-20T19:51:31.766Z,99.90
2023-04-20T19:53:59.664Z,99.90
2023-04-20T19:56:26.708Z,99.90
2023-04-20T19:58:53.567Z,99.90
2023-04-20T20:01:20.696Z,99.90
2023-04-20T20:03:47.659Z,99.90
2023-04-20T20:06:16.337Z,99.90
2023-04-20T20:08:43.133Z,99.90
2023-04-20T20:11:10.156Z,99.90
2023-04-20T20:13:36.984Z,99.90
2023-04-20T20:16:03.934Z,99.90
2023-04-20T20:18:31.165Z,99.90
2023-04-20T20:20:58.016Z,99.90
2023-04-20T20:23:26.251Z,99.90
2023-04-20T20:25:53.113Z,99.90
2023-04-20T20:28:20.342Z,99.90
2023-04-20T20:30:47.233Z,99.90
2023-04-20T20:33:14.217Z,99.90
2023-04-20T20:35:41.613Z,99.90
2023-04-20T20:38:08.679Z,99.90
2023-04-20T20:40:39.809Z,99.90
2023-04-20T20:43:06.687Z,99.90
2023-04-20T20:45:33.678Z,99.90
2023-04-20T20:48:00.849Z,99.90
2023-04-20T20:50:27.874Z,99.90
2023-04-20T20:52:54.887Z,99.90
2023-04-20T20:55:21.850Z,99.90
2023-04-20T20:57:50.084Z,99.90
2023-04-20T21:00:17.240Z,99.90
2023-04-20T21:02:44.607Z,99.90
2023-04-20T21:05:11.718Z,99.90
2023-04-20T21:07:38.622Z,99.90
2023-04-20T21:10:06.576Z,99.90
2023-04-20T21:12:33.366Z,99.90
2023-04-20T21:15:01.517Z,99.90
2023-04-20T21:17:28.526Z,99.90
2023-04-20T21:19:55.497Z,99.90
2023-04-20T21:22:22.478Z,99.90
2023-04-20T21:24:49.440Z,99.90
2023-04-20T21:27:16.252Z,99.90
2023-04-20T21:29:43.048Z,99.90
2023-04-20T21:32:11.394Z,99.90
2023-04-20T21:34:38.320Z,99.90
2023-04-20T21:37:05.699Z,99.90
2023-04-20T21:39:32.688Z,99.90
2023-04-20T21:41:59.797Z,99.90
2023-04-20T21:44:26.873Z,99.90
2023-04-20T21:46:53.715Z,99.90
2023-04-20T21:49:21.866Z,99.90
2023-04-20T21:51:49.027Z,99.90
2023-04-20T21:54:15.967Z,99.90
2023-04-20T21:56:42.776Z,99.90
2023-04-20T21:59:09.535Z,99.90
2023-04-20T22:01:36.536Z,99.90
2023-04-20T22:04:04.651Z,99.90
2023-04-20T22:06:33.078Z,99.90
2023-04-20T22:08:59.896Z,99.90
2023-04-20T22:11:26.759Z,99.90
2023-04-20T22:13:53.579Z,99.90
2023-04-20T22:16:21.764Z,99.90
2023-04-20T22:18:49.065Z,99.90
2023-04-20T22:21:15.948Z,99.90
2023-04-20T22:23:44.113Z,99.90
2023-04-20T22:26:10.976Z,99.90
2023-04-20T22:28:37.773Z,99.90
2023-04-20T22:31:04.875Z,99.90
2023-04-20T22:33:34.297Z,99.90
2023-04-20T22:36:01.208Z,99.90
2023-04-20T22:38:28.084Z,99.90
2023-04-20T22:40:56.467Z,99.90
2023-04-20T22:43:24.140Z,99.90
2023-04-20T22:45:52.670Z,99.90
2023-04-20T22:48:19.505Z,99.90
2023-04-20T22:50:46.680Z,99.90
2023-04-20T22:53:13.771Z,99.90
2023-04-20T22:55:40.852Z,99.90
2023-04-20T22:58:09.158Z,99.90
2023-04-20T23:00:36.051Z,99.90
2023-04-20T23:03:03.169Z,99.90
2023-04-20T23:05:30.121Z,99.90
2023-04-20T23:07:56.970Z,99.90
2023-04-20T23:10:28.481Z,99.90
2023-04-20T23:12:55.559Z,99.90
2023-04-20T23:15:23.876Z,99.90
2023-04-20T23:17:50.941Z,99.90
2023-04-20T23:20:17.812Z,99.90
2023-04-20T23:22:44.681Z,99.90
2023-04-20T23:25:11.527Z,99.90
2023-04-20T23:27:38.325Z,99.90
2023-04-20T23:30:06.618Z,99.90
2023-04-20T23:32:35.544Z,99.90
2023-04-20T23:35:02.476Z,99.90
2023-04-20T23:37:29.380Z,99.90
2023-04-20T23:39:58.087Z,99.90
2023-04-20T23:42:24.848Z,99.90
2023-04-20T23:44:51.693Z,99.90
2023-04-20T23:47:18.532Z,99.90
2023-04-20T23:49:46.700Z,99.90
2023-04-20T23:52:13.629Z,99.90
2023-04-20T23:54:40.445Z,99.90
2023-04-20T23:57:07.348Z,99.90
2023-04-20T23:59:34.274Z,99.90
